Time;durP1;ratioP1;P1;durP2;ratioP2;P2;SDS_P1;SDS_P2;PMS_P1;PMS_P2;Temp;Humidity;BMP_temperature;BMP_pressure;BME280_temperature;BME280_humidity;BME280_pressure;Samples;Min_cycle;Max_cycle;Signal;HPM_P1;HPM_P2
2023/10/27 00:01:57;;;;;;;0.00;0.00;;;18.80;46.30;;;;;;5041219;28;20667;-46
2023/10/27 00:04:30;;;;;;;0.10;0.10;;;18.90;46.40;;;;;;5035621;28;20576;-45
2023/10/27 00:07:00;;;;;;;0.10;0.10;;;18.80;46.30;;;;;;5032506;28;20597;-49
2023/10/27 00:09:31;;;;;;;0.10;0.10;;;18.90;46.40;;;;;;5032869;28;20196;-49
2023/10/27 00:12:02;;;;;;;0.00;0.00;;;18.90;46.40;;;;;;5059730;23;20224;-50
2023/10/27 00:14:33;;;;;;;0.10;0.10;;;18.90;46.30;;;;;;5013950;28;20676;-49
2023/10/27 00:17:04;;;;;;;0.10;0.10;;;18.90;46.30;;;;;;5021810;28;20220;-49
2023/10/27 00:19:36;;;;;;;0.10;0.10;;;18.90;46.40;;;;;;5022726;28;20204;-55
2023/10/27 00:22:07;;;;;;;0.10;0.10;;;18.90;46.40;;;;;;5002058;28;20205;-48
2023/10/27 00:24:37;;;;;;;0.10;0.10;;;18.90;46.30;;;;;;4993182;28;20583;-51
2023/10/27 00:27:08;;;;;;;0.10;0.10;;;18.90;46.30;;;;;;5012191;28;20582;-51
2023/10/27 00:29:39;;;;;;;0.10;0.10;;;18.90;46.30;;;;;;5032510;28;20564;-56
2023/10/27 00:32:10;;;;;;;0.10;0.10;;;18.90;46.40;;;;;;5010342;28;20584;-56
2023/10/27 00:34:42;;;;;;;0.10;0.10;;;18.90;46.50;;;;;;4993229;28;20205;-50
2023/10/27 00:37:13;;;;;;;0.10;0.10;;;19.00;46.60;;;;;;4997696;28;20221;-45
2023/10/27 00:39:44;;;;;;;0.10;0.10;;;19.00;46.50;;;;;;5003170;28;20204;-53
2023/10/27 00:42:14;;;;;;;0.10;0.10;;;19.00;46.60;;;;;;4993530;28;20642;-52
2023/10/27 00:44:45;;;;;;;0.10;0.10;;;19.00;46.50;;;;;;4992965;28;20205;-47
2023/10/27 00:47:16;;;;;;;0.10;0.10;;;19.00;46.50;;;;;;4992107;28;20217;-55
2023/10/27 00:49:49;;;;;;;0.10;0.10;;;19.00;46.50;;;;;;5006753;28;20200;-52
2023/10/27 00:52:21;;;;;;;0.10;0.10;;;19.00;46.50;;;;;;5001031;28;20194;-56
2023/10/27 00:54:53;;;;;;;0.10;0.10;;;19.00;46.40;;;;;;4993266;28;20692;-56
2023/10/27 00:57:24;;;;;;;0.10;0.10;;;19.10;46.50;;;;;;4992390;28;20720;-54
2023/10/27 00:59:56;;;;;;;0.00;0.00;;;19.10;46.40;;;;;;4992997;28;20198;-52
2023/10/27 01:02:26;;;;;;;0.10;0.10;;;19.10;46.40;;;;;;4994387;28;20198;-53
2023/10/27 01:04:59;;;;;;;0.10;0.10;;;19.10;46.30;;;;;;4993237;28;20197;-57
2023/10/27 01:07:30;;;;;;;0.03;0.03;;;19.10;46.30;;;;;;4992550;28;20213;-51
2023/10/27 01:10:01;;;;;;;0.10;0.10;;;19.10;46.30;;;;;;5005645;28;20211;-46
2023/10/27 01:12:32;;;;;;;0.10;0.10;;;19.10;46.20;;;;;;5012913;28;20228;-50
2023/10/27 01:15:02;;;;;;;0.10;0.10;;;19.10;46.10;;;;;;5012259;28;20197;-56
2023/10/27 01:17:33;;;;;;;0.10;0.10;;;19.10;46.10;;;;;;4999927;28;20701;-57
2023/10/27 01:20:06;;;;;;;0.10;0.10;;;19.10;46.00;;;;;;4992575;28;20202;-47
2023/10/27 01:22:36;;;;;;;0.10;0.10;;;19.10;46.00;;;;;;4992350;28;20194;-49
2023/10/27 01:25:10;;;;;;;0.10;0.10;;;19.10;46.00;;;;;;4992941;28;20205;-55
2023/10/27 01:27:40;;;;;;;0.20;0.20;;;19.10;46.00;;;;;;5004135;28;20223;-50
2023/10/27 01:30:12;;;;;;;0.10;0.10;;;19.10;46.00;;;;;;5011658;28;20205;-54
2023/10/27 01:32:43;;;;;;;0.10;0.10;;;19.10;45.90;;;;;;5000152;28;20198;-57
2023/10/27 01:35:14;;;;;;;0.17;0.17;;;19.10;45.90;;;;;;4992427;28;20346;-56
2023/10/27 01:37:45;;;;;;;0.10;0.10;;;19.10;45.90;;;;;;4992260;28;20210;-56
2023/10/27 01:40:18;;;;;;;0.10;0.10;;;19.10;45.90;;;;;;5006040;28;20205;-56
2023/10/27 01:42:48;;;;;;;0.10;0.10;;;19.20;45.90;;;;;;4998972;28;20193;-57
2023/10/27 01:45:19;;;;;;;0.10;0.10;;;19.20;45.90;;;;;;4991963;28;20194;-53
2023/10/27 01:47:50;;;;;;;0.10;0.10;;;19.20;45.90;;;;;;4991874;28;20240;-57
2023/10/27 01:50:20;;;;;;;0.10;0.10;;;19.20;45.90;;;;;;4992158;28;20198;-56
2023/10/27 01:52:51;;;;;;;0.17;0.17;;;19.20;45.80;;;;;;4993387;28;20202;-57
2023/10/27 01:55:24;;;;;;;0.00;0.00;;;19.20;45.80;;;;;;5011458;28;20200;-50
2023/10/27 01:57:55;;;;;;;0.10;0.10;;;19.20;45.80;;;;;;4998991;28;20582;-51
2023/10/27 02:00:26;;;;;;;0.08;0.08;;;19.20;45.80;;;;;;4992296;28;20966;-50
2023/10/27 02:02:57;;;;;;;0.10;0.10;;;19.20;45.80;;;;;;4992511;28;20560;-52
2023/10/27 02:05:27;;;;;;;0.10;0.10;;;19.20;45.80;;;;;;5005959;28;20193;-55
2023/10/27 02:08:00;;;;;;;0.10;0.10;;;19.20;45.80;;;;;;5012046;28;20224;-51
2023/10/27 02:10:32;;;;;;;0.10;0.10;;;19.20;45.80;;;;;;5012139;28;20201;-49
2023/10/27 02:13:03;;;;;;;0.08;0.08;;;19.20;46.00;;;;;;5066027;23;20218;-44
2023/10/27 02:15:33;;;;;;;0.10;0.10;;;19.20;45.80;;;;;;5071232;28;20194;-46
2023/10/27 02:18:04;;;;;;;0.10;0.10;;;19.20;45.80;;;;;;5071349;28;20214;-49
2023/10/27 02:20:38;;;;;;;0.10;0.10;;;19.20;45.80;;;;;;5067064;28;20569;-44
2023/10/27 02:23:09;;;;;;;0.10;0.10;;;19.20;45.80;;;;;;5050677;28;20230;-49
2023/10/27 02:25:41;;;;;;;0.10;0.10;;;19.20;45.80;;;;;;5068910;28;20199;-46
2023/10/27 02:28:12;;;;;;;0.00;0.00;;;19.20;45.80;;;;;;5071370;28;20225;-47
2023/10/27 02:30:42;;;;;;;0.10;0.10;;;19.20;45.70;;;;;;5071414;28;20194;-46
2023/10/27 02:33:15;;;;;;;0.10;0.10;;;19.20;45.80;;;;;;5060418;28;20198;-48
2023/10/27 02:35:45;;;;;;;0.10;0.10;;;19.20;45.70;;;;;;5050794;28;20569;-46
2023/10/27 02:38:16;;;;;;;0.10;0.10;;;19.20;45.70;;;;;;5049587;28;20211;-45
2023/10/27 02:40:49;;;;;;;0.10;0.10;;;19.20;45.70;;;;;;5051221;28;20200;-47
2023/10/27 02:43:19;;;;;;;0.10;0.10;;;19.20;45.70;;;;;;5050719;28;20481;-45
2023/10/27 02:45:50;;;;;;;0.10;0.10;;;19.20;45.70;;;;;;5050259;28;20921;-45
2023/10/27 02:48:20;;;;;;;0.10;0.10;;;19.20;45.70;;;;;;5050090;28;20679;-46
2023/10/27 02:50:51;;;;;;;0.10;0.10;;;19.20;45.70;;;;;;5050128;28;20656;-45
2023/10/27 02:53:22;;;;;;;0.00;0.00;;;19.10;45.70;;;;;;5050753;28;20678;-45
2023/10/27 02:55:54;;;;;;;0.10;0.10;;;19.10;45.70;;;;;;5050681;28;20199;-44
2023/10/27 02:58:25;;;;;;;0.00;0.00;;;19.10;45.70;;;;;;5050310;28;20220;-47
2023/10/27 03:00:56;;;;;;;0.10;0.10;;;19.10;45.80;;;;;;5050315;28;20203;-45
2023/10/27 03:03:27;;;;;;;0.10;0.10;;;19.10;45.80;;;;;;5058475;28;20215;-45
2023/10/27 03:05:58;;;;;;;0.10;0.10;;;19.10;45.80;;;;;;5050561;28;20195;-49
2023/10/27 03:08:29;;;;;;;0.20;0.20;;;19.10;45.80;;;;;;5050449;28;20232;-45
2023/10/27 03:11:03;;;;;;;0.10;0.10;;;19.10;45.80;;;;;;5052994;28;20196;-45
2023/10/27 03:13:35;;;;;;;0.08;0.08;;;19.10;45.80;;;;;;5053913;28;20202;-44
2023/10/27 03:16:06;;;;;;;0.10;0.10;;;19.10;45.80;;;;;;5053821;28;20203;-45
2023/10/27 03:18:37;;;;;;;0.08;0.08;;;19.10;45.80;;;;;;5053443;28;20216;-46
2023/10/27 03:21:08;;;;;;;0.10;0.10;;;19.10;45.80;;;;;;5054063;28;20538;-45
2023/10/27 03:23:40;;;;;;;0.00;0.00;;;19.10;45.80;;;;;;5053986;28;20211;-49
2023/10/27 03:26:12;;;;;;;0.10;0.10;;;19.10;45.80;;;;;;5054373;28;20191;-46
2023/10/27 03:28:43;;;;;;;0.10;0.10;;;19.10;45.80;;;;;;5052965;28;20671;-43
2023/10/27 03:31:14;;;;;;;0.10;0.10;;;19.10;45.80;;;;;;5054343;28;20192;-48
2023/10/27 03:33:45;;;;;;;0.10;0.10;;;19.20;45.80;;;;;;5054131;28;20663;-47
2023/10/27 03:36:16;;;;;;;0.15;0.15;;;19.20;45.90;;;;;;5053813;28;20203;-44
2023/10/27 03:38:47;;;;;;;0.10;0.10;;;19.20;45.90;;;;;;5053989;28;20223;-45
2023/10/27 03:41:19;;;;;;;0.10;0.10;;;19.10;45.90;;;;;;5053270;28;20203;-45
2023/10/27 03:43:51;;;;;;;0.10;0.10;;;19.20;45.90;;;;;;5053260;28;20219;-49
2023/10/27 03:46:21;;;;;;;0.13;0.13;;;19.20;45.90;;;;;;5052973;28;20675;-45
2023/10/27 03:48:52;;;;;;;0.10;0.10;;;19.20;45.80;;;;;;5053317;28;20285;-44
2023/10/27 03:51:23;;;;;;;0.10;0.10;;;19.20;45.80;;;;;;5053023;28;20203;-46
2023/10/27 03:53:54;;;;;;;0.10;0.10;;;19.20;45.70;;;;;;5052595;28;20757;-48
2023/10/27 03:56:27;;;;;;;0.10;0.10;;;19.20;45.70;;;;;;5053810;28;20651;-45
2023/10/27 03:58:57;;;;;;;0.10;0.10;;;19.20;45.70;;;;;;5053444;28;20211;-44
2023/10/27 04:01:29;;;;;;;0.10;0.10;;;19.30;45.70;;;;;;5053539;28;20203;-48
2023/10/27 04:03:59;;;;;;;0.10;0.10;;;19.30;45.70;;;;;;5052369;28;20752;-49
2023/10/27 04:06:30;;;;;;;0.00;0.00;;;19.30;45.60;;;;;;5052513;28;20195;-45
2023/10/27 04:09:02;;;;;;;0.00;0.00;;;19.30;45.70;;;;;;5054275;28;20219;-44
2023/10/27 04:11:34;;;;;;;0.00;0.00;;;19.30;45.70;;;;;;5087085;22;20170;-55
2023/10/27 04:14:05;;;;;;;0.10;0.10;;;19.30;45.70;;;;;;5039398;28;20691;-53
2023/10/27 04:16:37;;;;;;;0.10;0.10;;;19.30;45.70;;;;;;5050027;28;20547;-55
2023/10/27 04:19:07;;;;;;;0.10;0.10;;;19.30;45.70;;;;;;5036448;28;20604;-56
2023/10/27 04:21:38;;;;;;;0.10;0.10;;;19.30;45.70;;;;;;5052697;28;20207;-53
2023/10/27 04:24:09;;;;;;;0.10;0.10;;;19.30;45.60;;;;;;5026793;28;20690;-51
2023/10/27 04:26:42;;;;;;;0.10;0.10;;;19.40;45.70;;;;;;5012484;28;20570;-51
2023/10/27 04:29:13;;;;;;;0.10;0.10;;;19.40;45.60;;;;;;5031515;28;20211;-54
2023/10/27 04:31:43;;;;;;;0.10;0.10;;;19.40;45.60;;;;;;5027562;28;20542;-51
2023/10/27 04:34:14;;;;;;;0.10;0.10;;;19.40;45.50;;;;;;5026418;28;20451;-55
2023/10/27 04:36:45;;;;;;;0.10;0.10;;;19.40;45.60;;;;;;5032339;28;20200;-54
2023/10/27 04:39:16;;;;;;;0.10;0.10;;;19.40;45.60;;;;;;5024667;28;20255;-49
2023/10/27 04:41:49;;;;;;;0.08;0.08;;;19.50;45.60;;;;;;5013041;28;20196;-55
2023/10/27 04:44:22;;;;;;;0.10;0.10;;;19.50;45.60;;;;;;5020610;28;20219;-51
2023/10/27 04:46:53;;;;;;;0.10;0.10;;;19.50;45.50;;;;;;5032900;28;20238;-56
2023/10/27 04:49:23;;;;;;;0.00;0.00;;;19.50;45.50;;;;;;5031889;28;20200;-57
2023/10/27 04:51:54;;;;;;;0.10;0.10;;;19.50;45.50;;;;;;5032697;28;20200;-56
2023/10/27 04:54:25;;;;;;;0.00;0.00;;;19.50;45.50;;;;;;5031854;28;20648;-54
2023/10/27 04:56:57;;;;;;;0.03;0.03;;;19.50;46.10;;;;;;5032725;28;20196;-56
2023/10/27 04:59:28;;;;;;;0.10;0.10;;;19.60;45.50;;;;;;5030874;28;20691;-56
2023/10/27 05:01:59;;;;;;;0.00;0.00;;;19.60;45.40;;;;;;5031858;28;20675;-53
2023/10/27 05:04:29;;;;;;;0.00;0.00;;;19.60;45.40;;;;;;5017730;28;20224;-56
2023/10/27 05:07:00;;;;;;;0.10;0.10;;;19.60;45.40;;;;;;5011465;28;20220;-51
2023/10/27 05:09:31;;;;;;;0.10;0.10;;;19.60;45.40;;;;;;5020996;28;20351;-51
2023/10/27 05:12:03;;;;;;;0.10;0.10;;;19.60;45.40;;;;;;5032001;28;20218;-52
2023/10/27 05:14:34;;;;;;;0.10;0.10;;;19.60;45.40;;;;;;5031641;28;20192;-51
2023/10/27 05:17:05;;;;;;;0.17;0.17;;;19.70;45.40;;;;;;5043716;28;20211;-52
2023/10/27 05:19:38;;;;;;;0.10;0.10;;;19.70;45.40;;;;;;5025235;28;20189;-49
2023/10/27 05:22:08;;;;;;;0.10;0.10;;;19.80;45.40;;;;;;5011714;28;20204;-51
2023/10/27 05:24:39;;;;;;;0.10;0.10;;;19.80;45.40;;;;;;5011887;28;20228;-48
2023/10/27 05:27:11;;;;;;;0.00;0.00;;;19.80;45.30;;;;;;5013853;28;20234;-54
2023/10/27 05:29:42;;;;;;;0.10;0.10;;;19.80;45.30;;;;;;5031474;28;20210;-56
2023/10/27 05:32:13;;;;;;;0.10;0.10;;;19.80;45.30;;;;;;5031416;28;20207;-56
2023/10/27 05:34:44;;;;;;;0.10;0.10;;;19.90;45.30;;;;;;5030302;28;20257;-51
2023/10/27 05:37:14;;;;;;;0.10;0.10;;;19.90;45.30;;;;;;5031144;28;20223;-51
2023/10/27 05:39:45;;;;;;;0.10;0.10;;;19.90;45.30;;;;;;5031183;28;20204;-49
2023/10/27 05:42:18;;;;;;;0.10;0.10;;;19.90;45.30;;;;;;5031243;28;20192;-47
2023/10/27 05:44:48;;;;;;;0.10;0.10;;;19.90;45.30;;;;;;5030558;28;20396;-50
2023/10/27 05:47:19;;;;;;;0.10;0.10;;;19.90;45.30;;;;;;5031813;28;20224;-52
2023/10/27 05:49:50;;;;;;;0.00;0.00;;;19.90;45.20;;;;;;5031457;28;20566;-54
2023/10/27 05:52:21;;;;;;;0.10;0.10;;;19.90;45.20;;;;;;5032080;28;20606;-48
2023/10/27 05:54:51;;;;;;;0.10;0.10;;;19.90;45.10;;;;;;5031158;28;20192;-51
2023/10/27 05:57:24;;;;;;;0.10;0.10;;;20.00;45.20;;;;;;5031190;28;20231;-56
2023/10/27 05:59:55;;;;;;;0.00;0.00;;;20.00;45.20;;;;;;5031244;28;20215;-54
2023/10/27 06:02:25;;;;;;;0.10;0.10;;;20.00;45.10;;;;;;5029875;28;20204;-51
2023/10/27 06:04:56;;;;;;;0.10;0.10;;;20.00;45.20;;;;;;5025100;28;20704;-56
2023/10/27 06:07:27;;;;;;;0.10;0.10;;;20.00;45.10;;;;;;5031207;28;20235;-54
2023/10/27 06:09:57;;;;;;;0.08;0.08;;;20.10;45.10;;;;;;5033792;28;20196;-49
2023/10/27 06:12:30;;;;;;;0.10;0.10;;;20.00;45.10;;;;;;5031359;28;20660;-56
2023/10/27 06:15:00;;;;;;;0.00;0.00;;;20.10;45.10;;;;;;5027054;28;20655;-47
2023/10/27 06:17:32;;;;;;;0.08;0.08;;;20.10;45.10;;;;;;5050753;28;20691;-51
2023/10/27 06:20:04;;;;;;;0.10;0.10;;;20.10;45.10;;;;;;5030743;28;20200;-55
2023/10/27 06:22:34;;;;;;;0.10;0.10;;;20.00;45.10;;;;;;5031561;28;20200;-53
2023/10/27 06:25:05;;;;;;;0.10;0.10;;;20.00;45.00;;;;;;5023721;28;20726;-50
2023/10/27 06:27:39;;;;;;;0.00;0.00;;;20.00;45.00;;;;;;5012224;28;20220;-56
2023/10/27 06:30:10;;;;;;;0.00;0.00;;;20.00;45.00;;;;;;5023863;28;20211;-55
2023/10/27 06:32:41;;;;;;;0.10;0.10;;;20.10;44.90;;;;;;5031530;28;20192;-53
2023/10/27 06:35:12;;;;;;;0.00;0.00;;;20.10;44.90;;;;;;5030381;28;20196;-56
2023/10/27 06:37:43;;;;;;;0.10;0.10;;;20.10;44.90;;;;;;5030897;28;20308;-55
2023/10/27 06:40:14;;;;;;;0.10;0.10;;;20.10;44.90;;;;;;5029634;28;20640;-55
2023/10/27 06:42:46;;;;;;;0.10;0.10;;;20.00;44.90;;;;;;5030940;28;20203;-55
2023/10/27 06:45:17;;;;;;;0.10;0.10;;;20.10;44.90;;;;;;5033060;28;20223;-53
2023/10/27 06:47:47;;;;;;;0.00;0.00;;;20.00;44.90;;;;;;5033517;28;20219;-51
2023/10/27 06:50:18;;;;;;;0.00;0.00;;;20.00;44.90;;;;;;5034511;28;20207;-55
2023/10/27 06:52:49;;;;;;;0.10;0.10;;;20.00;44.90;;;;;;5033962;28;20204;-54
2023/10/27 06:55:20;;;;;;;0.10;0.10;;;20.00;45.50;;;;;;5033906;28;20215;-54
2023/10/27 06:57:52;;;;;;;0.10;0.10;;;20.00;44.90;;;;;;5034583;28;20219;-56
2023/10/27 07:00:23;;;;;;;0.10;0.10;;;20.00;44.90;;;;;;5033052;28;20208;-57
2023/10/27 07:02:54;;;;;;;0.10;0.10;;;20.00;44.90;;;;;;5020344;28;20204;-52
2023/10/27 07:05:24;;;;;;;0.10;0.10;;;20.00;44.90;;;;;;5014893;28;20236;-57
2023/10/27 07:07:55;;;;;;;0.10;0.10;;;20.00;44.90;;;;;;5015106;28;20221;-54
2023/10/27 07:10:26;;;;;;;0.00;0.00;;;20.00;44.90;;;;;;5031025;28;20204;-52
2023/10/27 07:12:58;;;;;;;0.10;0.10;;;20.00;44.90;;;;;;5062560;22;20223;-44
2023/10/27 07:15:29;;;;;;;0.10;0.10;;;19.90;44.80;;;;;;5053773;28;20265;-46
2023/10/27 07:18:00;;;;;;;0.10;0.10;;;19.90;44.80;;;;;;5054398;28;20222;-44
2023/10/27 07:20:30;;;;;;;0.10;0.10;;;19.90;44.80;;;;;;5054370;28;20191;-43
2023/10/27 07:23:01;;;;;;;0.10;0.10;;;19.90;44.80;;;;;;5053833;28;20202;-46
2023/10/27 07:25:33;;;;;;;0.10;0.10;;;19.90;44.80;;;;;;5054007;28;20683;-47
2023/10/27 07:28:06;;;;;;;0.10;0.10;;;19.80;44.80;;;;;;5054280;28;20215;-46
2023/10/27 07:30:37;;;;;;;0.10;0.10;;;19.80;44.70;;;;;;5053706;28;20195;-47
2023/10/27 07:33:07;;;;;;;0.00;0.00;;;19.80;44.80;;;;;;5054075;28;20187;-45
2023/10/27 07:35:38;;;;;;;0.10;0.10;;;19.80;44.80;;;;;;5054054;28;20199;-47
2023/10/27 07:38:09;;;;;;;0.10;0.10;;;19.80;44.80;;;;;;5053885;28;20215;-46
2023/10/27 07:40:42;;;;;;;0.08;0.08;;;19.80;44.80;;;;;;5053723;28;20203;-46
2023/10/27 07:43:14;;;;;;;0.10;0.10;;;19.80;44.80;;;;;;5053921;28;20278;-46
2023/10/27 07:45:48;;;;;;;0.00;0.00;;;19.80;44.80;;;;;;5053789;28;20230;-46
2023/10/27 07:48:19;;;;;;;0.00;0.00;;;19.80;44.80;;;;;;5053449;28;20211;-46
2023/10/27 07:50:49;;;;;;;0.10;0.10;;;19.70;44.70;;;;;;5053789;28;20191;-47
2023/10/27 07:53:20;;;;;;;0.10;0.10;;;19.70;44.70;;;;;;5054053;28;20204;-47
2023/10/27 07:55:51;;;;;;;0.00;0.00;;;19.70;44.70;;;;;;5053402;28;20561;-47
2023/10/27 07:58:25;;;;;;;0.03;0.03;;;19.70;44.70;;;;;;5054369;28;20227;-45
2023/10/27 08:00:55;;;;;;;0.00;0.00;;;19.60;44.80;;;;;;5053414;28;20261;-46
2023/10/27 08:03:28;;;;;;;0.10;0.10;;;19.70;44.90;;;;;;5052271;28;20199;-50
2023/10/27 08:05:58;;;;;;;0.10;0.10;;;19.60;44.80;;;;;;5052307;28;20596;-48
2023/10/27 08:08:29;;;;;;;0.10;0.10;;;19.60;44.80;;;;;;5053295;28;20227;-47
2023/10/27 08:11:00;;;;;;;0.10;0.10;;;19.60;44.80;;;;;;5039669;28;20283;-46
2023/10/27 08:13:33;;;;;;;0.10;0.10;;;19.60;44.80;;;;;;5033138;28;20215;-46
2023/10/27 08:16:04;;;;;;;0.00;0.00;;;19.60;44.90;;;;;;5032988;28;20192;-45
2023/10/27 08:18:34;;;;;;;0.10;0.10;;;19.60;44.90;;;;;;5042910;28;20211;-45
2023/10/27 08:21:06;;;;;;;0.10;0.10;;;19.50;44.80;;;;;;5032616;28;20207;-46
2023/10/27 08:23:37;;;;;;;0.10;0.10;;;19.50;44.90;;;;;;5048001;28;20647;-46
2023/10/27 08:26:09;;;;;;;0.10;0.10;;;19.50;44.90;;;;;;5052300;28;20230;-44
2023/10/27 08:28:41;;;;;;;0.10;0.10;;;19.50;44.80;;;;;;5051573;28;20695;-47
2023/10/27 08:31:12;;;;;;;0.00;0.00;;;19.50;44.80;;;;;;5052097;28;20199;-46
2023/10/27 08:33:43;;;;;;;0.10;0.10;;;19.50;44.80;;;;;;5050472;28;20195;-47
2023/10/27 08:36:14;;;;;;;0.00;0.00;;;19.40;45.40;;;;;;5032181;28;20547;-45
2023/10/27 08:38:45;;;;;;;0.10;0.10;;;19.40;44.80;;;;;;5034949;28;20710;-43
2023/10/27 08:41:16;;;;;;;0.05;0.05;;;19.40;44.80;;;;;;5052395;28;20206;-43
2023/10/27 08:43:48;;;;;;;0.03;0.03;;;19.40;44.80;;;;;;5051359;28;20195;-47
2023/10/27 08:46:20;;;;;;;0.00;0.00;;;19.40;44.80;;;;;;5051368;28;20230;-47
2023/10/27 08:48:51;;;;;;;0.10;0.10;;;19.30;44.70;;;;;;5049858;28;20589;-46
2023/10/27 08:51:22;;;;;;;0.00;0.00;;;19.30;44.70;;;;;;5032751;28;20188;-46
2023/10/27 08:53:53;;;;;;;0.10;0.10;;;19.30;44.80;;;;;;5043503;28;20196;-45
2023/10/27 08:56:23;;;;;;;0.10;0.10;;;19.30;44.80;;;;;;5051687;28;20199;-47
2023/10/27 08:58:56;;;;;;;0.10;0.10;;;19.30;44.80;;;;;;5050786;28;20215;-44
2023/10/27 09:01:27;;;;;;;0.00;0.00;;;19.20;44.70;;;;;;5052863;28;20199;-44
2023/10/27 09:04:10;;;;;;;0.10;0.10;;;19.20;44.70;;;;;;5052138;28;20249;-46
2023/10/27 09:06:42;;;;;;;0.10;0.10;;;19.20;44.70;;;;;;5051687;28;20246;-48
2023/10/27 09:09:14;;;;;;;0.10;0.10;;;19.20;44.70;;;;;;5051344;28;20207;-47
2023/10/27 09:11:47;;;;;;;0.00;0.00;;;19.20;44.70;;;;;;5052285;28;20199;-47
2023/10/27 09:14:25;;;;;;;0.10;0.10;;;19.20;44.70;;;;;;5045903;28;20210;-46
2023/10/27 09:17:07;;;;;;;0.10;0.10;;;19.10;44.70;;;;;;5031917;28;20223;-46
2023/10/27 09:19:39;;;;;;;0.10;0.10;;;19.10;44.70;;;;;;5031466;28;20188;-48
2023/10/27 09:22:18;;;;;;;0.08;0.08;;;19.10;44.70;;;;;;5032374;28;20606;-47
2023/10/27 09:24:49;;;;;;;0.00;0.00;;;19.10;44.70;;;;;;5034741;28;20192;-46
2023/10/27 09:27:29;;;;;;;0.10;0.10;;;19.10;44.70;;;;;;5031733;28;20243;-45
2023/10/27 09:30:01;;;;;;;0.00;0.00;;;19.00;44.60;;;;;;5030601;28;20196;-46
2023/10/27 09:32:34;;;;;;;0.00;0.00;;;19.00;44.60;;;;;;5031065;28;20196;-46
2023/10/27 09:35:17;;;;;;;0.00;0.00;;;19.00;44.60;;;;;;5041053;28;20667;-45
2023/10/27 09:37:49;;;;;;;0.03;0.03;;;19.00;44.60;;;;;;5051272;28;20774;-49
2023/10/27 09:40:20;;;;;;;0.10;0.10;;;18.90;44.60;;;;;;5051062;28;20282;-45
2023/10/27 09:42:55;;;;;;;0.10;0.10;;;18.90;44.70;;;;;;5050409;28;20629;-45
2023/10/27 09:45:32;;;;;;;0.10;0.10;;;18.90;44.70;;;;;;5044932;28;20764;-47
2023/10/27 09:48:05;;;;;;;0.10;0.10;;;18.90;44.70;;;;;;5032198;28;20220;-45
2023/10/27 09:50:36;;;;;;;0.10;0.10;;;18.90;44.70;;;;;;5037621;28;20677;-46
2023/10/27 09:53:07;;;;;;;0.10;0.10;;;18.90;44.70;;;;;;5031067;28;20267;-47
2023/10/27 09:55:39;;;;;;;0.10;0.10;;;18.80;44.60;;;;;;5031552;28;20659;-46
2023/10/27 09:58:10;;;;;;;0.00;0.00;;;18.80;44.60;;;;;;5030670;28;20230;-47
2023/10/27 10:00:43;;;;;;;0.10;0.10;;;18.80;44.70;;;;;;5030523;28;20204;-45
2023/10/27 10:03:14;;;;;;;0.10;0.10;;;18.80;44.70;;;;;;5043375;28;20195;-46
2023/10/27 10:06:15;;;;;;;0.10;0.10;;;18.80;44.70;;;;;;5036672;28;20635;-49
2023/10/27 10:09:09;;;;;;;0.10;0.10;;;18.70;44.60;;;;;;5033376;28;20212;-49
2023/10/27 10:14:11;;;;;;;0.10;0.10;;;18.70;44.60;;;;;;5049003;28;20250;-52
2023/10/27 10:16:48;;;;;;;0.08;0.08;;;18.60;44.60;;;;;;5052915;28;20192;-51
2023/10/27 10:19:49;;;;;;;0.10;0.10;;;18.60;44.60;;;;;;5011821;28;20223;-50
2023/10/27 10:22:51;;;;;;;0.00;0.00;;;18.60;44.60;;;;;;5029486;28;20257;-51
2023/10/27 10:25:34;;;;;;;0.10;0.10;;;18.60;44.60;;;;;;5033333;28;20227;-50
2023/10/27 10:28:29;;;;;;;0.10;0.10;;;18.60;44.70;;;;;;5030529;28;20216;-50
2023/10/27 10:31:35;;;;;;;0.00;0.00;;;18.60;45.00;;;;;;5033005;28;20195;-54
2023/10/27 10:34:17;;;;;;;0.10;0.10;;;18.50;44.70;;;;;;5030157;28;20196;-51
2023/10/27 10:36:48;;;;;;;0.10;0.10;;;18.50;44.70;;;;;;5011313;28;20284;-55
2023/10/27 10:39:17;;;;;;;0.10;0.10;;;18.50;44.70;;;;;;5017466;28;20652;-56
2023/10/27 10:42:06;;;;;;;0.00;0.00;;;18.40;44.70;;;;;;5028930;28;20196;-57
2023/10/27 10:44:37;;;;;;;0.10;0.10;;;18.50;44.80;;;;;;5030317;28;20347;-53
2023/10/27 10:47:25;;;;;;;0.10;0.10;;;18.40;44.70;;;;;;5030366;28;20234;-51
2023/10/27 10:49:58;;;;;;;0.10;0.10;;;18.40;44.70;;;;;;5030586;28;20216;-52
2023/10/27 10:52:28;;;;;;;0.10;0.10;;;18.40;44.70;;;;;;5030871;28;20204;-52
2023/10/27 10:54:59;;;;;;;0.10;0.10;;;18.40;44.80;;;;;;5015458;28;20203;-54
2023/10/27 10:57:30;;;;;;;0.00;0.00;;;18.30;44.70;;;;;;5030814;28;20223;-49
2023/10/27 11:00:01;;;;;;;0.10;0.10;;;18.30;44.70;;;;;;5030597;28;20223;-53
2023/10/27 11:02:31;;;;;;;0.10;0.10;;;18.30;44.70;;;;;;5030885;28;20200;-53
2023/10/27 11:05:24;;;;;;;0.00;0.00;;;18.30;44.80;;;;;;5030400;28;20188;-47
2023/10/27 11:07:55;;;;;;;0.10;0.10;;;18.30;44.80;;;;;;5029816;28;20228;-53
2023/10/27 11:10:26;;;;;;;0.10;0.10;;;18.30;44.80;;;;;;5030109;28;20196;-54
2023/10/27 11:12:57;;;;;;;0.08;0.08;;;18.20;44.70;;;;;;5029882;28;20211;-51
2023/10/27 11:15:48;;;;;;;0.17;0.17;;;18.20;44.70;;;;;;5022699;28;20717;-55
2023/10/27 11:18:19;;;;;;;0.10;0.10;;;18.20;44.70;;;;;;5029932;28;20220;-53
2023/10/27 11:20:52;;;;;;;0.10;0.10;;;18.20;44.70;;;;;;5030201;28;20208;-49
2023/10/27 11:23:22;;;;;;;0.10;0.10;;;18.20;44.70;;;;;;5030451;28;20195;-53
2023/10/27 11:26:04;;;;;;;0.00;0.00;;;18.20;44.70;;;;;;5030270;28;20196;-56
2023/10/27 11:28:40;;;;;;;0.03;0.03;;;18.10;44.70;;;;;;5030259;28;20570;-55
2023/10/27 11:31:12;;;;;;;0.10;0.10;;;18.10;44.70;;;;;;5031633;28;20192;-52
2023/10/27 11:34:03;;;;;;;0.03;0.03;;;18.10;44.70;;;;;;5031081;28;20196;-52
2023/10/27 11:36:36;;;;;;;0.20;0.20;;;18.10;44.70;;;;;;5038913;28;20714;-49
2023/10/27 11:39:19;;;;;;;0.10;0.10;;;18.10;44.70;;;;;;5048857;28;20255;-56
2023/10/27 11:41:52;;;;;;;0.05;0.05;;;18.10;44.70;;;;;;5033833;28;20196;-56
2023/10/27 11:44:23;;;;;;;0.10;0.10;;;18.00;44.60;;;;;;5033604;28;20192;-57
2023/10/27 11:46:55;;;;;;;0.20;0.20;;;18.10;44.70;;;;;;5033545;28;20227;-55
2023/10/27 11:49:26;;;;;;;0.10;0.10;;;18.00;44.70;;;;;;5033301;28;20273;-54
2023/10/27 11:51:59;;;;;;;0.10;0.10;;;18.00;44.70;;;;;;5033069;28;20192;-53
2023/10/27 11:54:30;;;;;;;0.10;0.10;;;18.00;44.70;;;;;;5034035;28;20611;-57
2023/10/27 11:57:02;;;;;;;0.10;0.10;;;18.00;44.80;;;;;;5033125;28;20203;-50
2023/10/27 11:59:33;;;;;;;0.10;0.10;;;18.00;44.70;;;;;;5026154;28;20188;-55
2023/10/27 12:02:03;;;;;;;0.10;0.10;;;17.90;44.70;;;;;;5049533;28;20187;-54
2023/10/27 12:04:34;;;;;;;0.10;0.10;;;17.90;44.70;;;;;;5053471;28;20206;-53
2023/10/27 12:07:07;;;;;;;0.10;0.10;;;17.90;44.70;;;;;;5035177;28;20228;-55
2023/10/27 12:09:37;;;;;;;0.10;0.10;;;17.90;44.70;;;;;;5032984;28;20200;-53
2023/10/27 12:12:09;;;;;;;0.13;0.13;;;17.90;44.70;;;;;;5033375;28;20203;-46
2023/10/27 12:14:39;;;;;;;0.10;0.10;;;17.90;44.70;;;;;;5035150;28;20251;-53
2023/10/27 12:17:10;;;;;;;0.20;0.20;;;17.80;44.60;;;;;;5041846;28;20532;-49
2023/10/27 12:19:41;;;;;;;0.10;0.10;;;17.80;44.60;;;;;;5052696;28;20201;-52
2023/10/27 12:22:13;;;;;;;0.10;0.10;;;17.80;44.70;;;;;;5034792;28;20572;-52
2023/10/27 12:24:44;;;;;;;0.10;0.10;;;17.80;44.60;;;;;;5048100;28;20227;-48
2023/10/27 12:27:15;;;;;;;0.10;0.10;;;17.80;44.70;;;;;;5050298;28;20226;-48
2023/10/27 12:29:45;;;;;;;0.05;0.05;;;17.70;44.70;;;;;;5053135;28;20218;-49
2023/10/27 12:32:16;;;;;;;0.10;0.10;;;17.70;44.70;;;;;;5050399;28;20204;-50
2023/10/27 12:34:46;;;;;;;0.10;0.10;;;17.70;44.70;;;;;;5032944;28;20199;-52
2023/10/27 12:37:19;;;;;;;0.10;0.10;;;17.70;44.70;;;;;;5033037;28;20688;-54
2023/10/27 12:39:50;;;;;;;0.03;0.03;;;17.70;44.70;;;;;;5032814;28;20207;-48
2023/10/27 12:42:20;;;;;;;0.15;0.15;;;17.70;44.70;;;;;;5032536;28;20207;-50
2023/10/27 12:44:51;;;;;;;0.00;0.00;;;17.60;44.70;;;;;;5032732;28;20196;-53
2023/10/27 12:47:22;;;;;;;0.10;0.10;;;17.60;44.60;;;;;;5032740;28;20320;-47
2023/10/27 12:49:52;;;;;;;0.10;0.10;;;17.60;44.60;;;;;;5033000;28;20196;-50
2023/10/27 12:52:25;;;;;;;0.10;0.10;;;17.60;44.70;;;;;;5032907;28;20538;-54
2023/10/27 12:54:55;;;;;;;0.10;0.10;;;17.60;44.70;;;;;;5033112;28;20192;-53
2023/10/27 12:57:26;;;;;;;0.10;0.10;;;17.60;44.60;;;;;;5032721;28;20696;-53
2023/10/27 12:59:57;;;;;;;0.10;0.10;;;17.50;44.60;;;;;;5033117;28;20727;-55
2023/10/27 13:02:28;;;;;;;0.10;0.10;;;17.60;44.70;;;;;;5032628;28;20223;-56
2023/10/27 13:05:02;;;;;;;0.10;0.10;;;17.50;44.60;;;;;;5032644;28;20599;-49
2023/10/27 13:07:34;;;;;;;0.10;0.10;;;17.50;44.60;;;;;;5032415;28;20232;-55
2023/10/27 13:10:05;;;;;;;0.10;0.10;;;17.50;44.60;;;;;;5032413;28;20199;-52
2023/10/27 13:12:36;;;;;;;0.10;0.10;;;17.50;44.60;;;;;;5032698;28;20200;-48
2023/10/27 13:15:09;;;;;;;0.00;0.00;;;17.40;44.70;;;;;;5032079;28;20603;-54
2023/10/27 13:17:39;;;;;;;0.10;0.10;;;17.40;44.70;;;;;;5032295;28;20586;-52